sensor_id;sensor_type;location;lat;lon;timestamp;P1;P2;P0
53658;PMS5003;41524;35.624;139.698;2024-01-07T00:00:09;3.00;3.00;
53658;PMS5003;41524;35.624;139.698;2024-01-07T00:05:10;3.00;3.00;
53658;PMS5003;41524;35.624;139.698;2024-01-07T00:10:09;1.00;1.00;
53658;PMS5003;41524;35.624;139.698;2024-01-07T00:15:10;1.00;1.00;
53658;PMS5003;41524;35.624;139.698;2024-01-07T00:20:09;0.00;0.00;
53658;PMS5003;41524;35.624;139.698;2024-01-07T00:25:09;0.00;0.00;
53658;PMS5003;41524;35.624;139.698;2024-01-07T00:30:10;0.00;0.00;
53658;PMS5003;41524;35.624;139.698;2024-01-07T00:35:09;0.00;0.00;
53658;PMS5003;41524;35.624;139.698;2024-01-07T00:40:10;0.00;0.00;
53658;PMS5003;41524;35.624;139.698;2024-01-07T00:45:09;1.00;1.00;
53658;PMS5003;41524;35.624;139.698;2024-01-07T00:50:14;2.00;1.00;
53658;PMS5003;41524;35.624;139.698;2024-01-07T00:55:09;4.00;2.00;
53658;PMS5003;41524;35.624;139.698;2024-01-07T01:00:09;4.00;4.00;
53658;PMS5003;41524;35.624;139.698;2024-01-07T01:05:09;7.00;4.00;
53658;PMS5003;41524;35.624;139.698;2024-01-07T01:10:09;3.00;3.00;
53658;PMS5003;41524;35.624;139.698;2024-01-07T01:15:10;3.00;3.00;
53658;PMS5003;41524;35.624;139.698;2024-01-07T01:20:09;5.00;4.00;
53658;PMS5003;41524;35.624;139.698;2024-01-07T01:25:09;5.00;4.00;
53658;PMS5003;41524;35.624;139.698;2024-01-07T01:30:19;4.00;4.00;
53658;PMS5003;41524;35.624;139.698;2024-01-07T01:35:09;3.00;3.00;
53658;PMS5003;41524;35.624;139.698;2024-01-07T01:40:10;4.00;4.00;
53658;PMS5003;41524;35.624;139.698;2024-01-07T01:45:09;4.00;3.00;
53658;PMS5003;41524;35.624;139.698;2024-01-07T01:50:09;1.00;1.00;
53658;PMS5003;41524;35.624;139.698;2024-01-07T01:55:09;1.00;1.00;
53658;PMS5003;41524;35.624;139.698;2024-01-07T02:00:10;2.00;2.00;
53658;PMS5003;41524;35.624;139.698;2024-01-07T02:05:08;0.00;0.00;
53658;PMS5003;41524;35.624;139.698;2024-01-07T02:10:09;0.00;0.00;
53658;PMS5003;41524;35.624;139.698;2024-01-07T02:15:09;0.00;0.00;
53658;PMS5003;41524;35.624;139.698;2024-01-07T02:20:10;1.00;0.00;
53658;PMS5003;41524;35.624;139.698;2024-01-07T02:25:09;0.00;0.00;
53658;PMS5003;41524;35.624;139.698;2024-01-07T02:30:09;0.00;0.00;
53658;PMS5003;41524;35.624;139.698;2024-01-07T02:35:09;0.00;0.00;
53658;PMS5003;41524;35.624;139.698;2024-01-07T02:40:09;0.00;0.00;
53658;PMS5003;41524;35.624;139.698;2024-01-07T02:45:09;0.00;0.00;
53658;PMS5003;41524;35.624;139.698;2024-01-07T02:50:08;1.00;1.00;
53658;PMS5003;41524;35.624;139.698;2024-01-07T02:55:08;2.00;2.00;
53658;PMS5003;41524;35.624;139.698;2024-01-07T03:00:09;0.00;0.00;
53658;PMS5003;41524;35.624;139.698;2024-01-07T03:05:09;1.00;1.00;
53658;PMS5003;41524;35.624;139.698;2024-01-07T03:10:10;0.00;0.00;
53658;PMS5003;41524;35.624;139.698;2024-01-07T03:15:09;0.00;0.00;
53658;PMS5003;41524;35.624;139.698;2024-01-07T03:20:09;0.00;0.00;
53658;PMS5003;41524;35.624;139.698;2024-01-07T03:25:08;0.00;0.00;
53658;PMS5003;41524;35.624;139.698;2024-01-07T03:30:09;1.00;1.00;
53658;PMS5003;41524;35.624;139.698;2024-01-07T03:35:10;2.00;2.00;
53658;PMS5003;41524;35.624;139.698;2024-01-07T03:40:10;1.00;1.00;
53658;PMS5003;41524;35.624;139.698;2024-01-07T03:45:09;1.00;1.00;
53658;PMS5003;41524;35.624;139.698;2024-01-07T03:50:09;2.00;1.00;
53658;PMS5003;41524;35.624;139.698;2024-01-07T03:55:09;3.00;3.00;
53658;PMS5003;41524;35.624;139.698;2024-01-07T04:00:10;1.00;1.00;
53658;PMS5003;41524;35.624;139.698;2024-01-07T04:05:09;0.00;0.00;
53658;PMS5003;41524;35.624;139.698;2024-01-07T04:10:09;1.00;1.00;
53658;PMS5003;41524;35.624;139.698;2024-01-07T04:15:09;0.00;0.00;
53658;PMS5003;41524;35.624;139.698;2024-01-07T04:20:12;0.00;0.00;
53658;PMS5003;41524;35.624;139.698;2024-01-07T04:25:09;1.00;0.00;
53658;PMS5003;41524;35.624;139.698;2024-01-07T04:30:09;0.00;0.00;
53658;PMS5003;41524;35.624;139.698;2024-01-07T04:35:11;0.00;0.00;
53658;PMS5003;41524;35.624;139.698;2024-01-07T04:40:09;0.00;0.00;
53658;PMS5003;41524;35.624;139.698;2024-01-07T04:45:09;0.00;0.00;
53658;PMS5003;41524;35.624;139.698;2024-01-07T04:50:09;1.00;1.00;
53658;PMS5003;41524;35.624;139.698;2024-01-07T04:55:09;0.00;0.00;
53658;PMS5003;41524;35.624;139.698;2024-01-07T05:00:09;1.00;1.00;
53658;PMS5003;41524;35.624;139.698;2024-01-07T05:05:09;1.00;1.00;
53658;PMS5003;41524;35.624;139.698;2024-01-07T05:10:09;2.00;2.00;
53658;PMS5003;41524;35.624;139.698;2024-01-07T05:15:09;1.00;1.00;
53658;PMS5003;41524;35.624;139.698;2024-01-07T05:20:09;1.00;1.00;
53658;PMS5003;41524;35.624;139.698;2024-01-07T05:25:09;1.00;1.00;
53658;PMS5003;41524;35.624;139.698;2024-01-07T05:30:09;3.00;3.00;
53658;PMS5003;41524;35.624;139.698;2024-01-07T05:35:09;4.00;2.00;
53658;PMS5003;41524;35.624;139.698;2024-01-07T05:40:10;3.00;3.00;
53658;PMS5003;41524;35.624;139.698;2024-01-07T05:45:09;2.00;2.00;
53658;PMS5003;41524;35.624;139.698;2024-01-07T05:50:08;3.00;2.00;
53658;PMS5003;41524;35.624;139.698;2024-01-07T05:55:09;3.00;3.00;
53658;PMS5003;41524;35.624;139.698;2024-01-07T06:00:14;4.00;4.00;
53658;PMS5003;41524;35.624;139.698;2024-01-07T06:05:09;3.00;3.00;
53658;PMS5003;41524;35.624;139.698;2024-01-07T06:10:09;2.00;2.00;
53658;PMS5003;41524;35.624;139.698;2024-01-07T06:15:08;3.00;3.00;
53658;PMS5003;41524;35.624;139.698;2024-01-07T06:20:09;3.00;3.00;
53658;PMS5003;41524;35.624;139.698;2024-01-07T06:25:09;3.00;3.00;
53658;PMS5003;41524;35.624;139.698;2024-01-07T06:30:10;4.00;4.00;
53658;PMS5003;41524;35.624;139.698;2024-01-07T06:35:09;3.00;3.00;
53658;PMS5003;41524;35.624;139.698;2024-01-07T06:40:10;3.00;2.00;
53658;PMS5003;41524;35.624;139.698;2024-01-07T06:45:09;2.00;2.00;
53658;PMS5003;41524;35.624;139.698;2024-01-07T06:50:09;4.00;4.00;
53658;PMS5003;41524;35.624;139.698;2024-01-07T06:55:09;5.00;4.00;
53658;PMS5003;41524;35.624;139.698;2024-01-07T07:00:09;2.00;2.00;
53658;PMS5003;41524;35.624;139.698;2024-01-07T07:05:09;3.00;3.00;
53658;PMS5003;41524;35.624;139.698;2024-01-07T07:10:09;5.00;5.00;
53658;PMS5003;41524;35.624;139.698;2024-01-07T07:15:09;4.00;2.00;
53658;PMS5003;41524;35.624;139.698;2024-01-07T07:20:11;4.00;4.00;
53658;PMS5003;41524;35.624;139.698;2024-01-07T07:25:09;1.00;1.00;
53658;PMS5003;41524;35.624;139.698;2024-01-07T07:30:09;4.00;4.00;
53658;PMS5003;41524;35.624;139.698;2024-01-07T07:35:08;4.00;3.00;
53658;PMS5003;41524;35.624;139.698;2024-01-07T07:40:09;2.00;2.00;
53658;PMS5003;41524;35.624;139.698;2024-01-07T07:45:09;3.00;3.00;
53658;PMS5003;41524;35.624;139.698;2024-01-07T07:50:09;2.00;2.00;
53658;PMS5003;41524;35.624;139.698;2024-01-07T07:55:09;2.00;2.00;
53658;PMS5003;41524;35.624;139.698;2024-01-07T08:00:09;4.00;4.00;
53658;PMS5003;41524;35.624;139.698;2024-01-07T08:05:09;4.00;3.00;
53658;PMS5003;41524;35.624;139.698;2024-01-07T08:10:09;4.00;4.00;
53658;PMS5003;41524;35.624;139.698;2024-01-07T08:15:09;3.00;3.00;
53658;PMS5003;41524;35.624;139.698;2024-01-07T08:20:09;3.00;2.00;
53658;PMS5003;41524;35.624;139.698;2024-01-07T08:25:09;4.00;4.00;
53658;PMS5003;41524;35.624;139.698;2024-01-07T08:30:09;4.00;4.00;
53658;PMS5003;41524;35.624;139.698;2024-01-07T08:35:09;6.00;5.00;
53658;PMS5003;41524;35.624;139.698;2024-01-07T08:40:23;7.00;7.00;
53658;PMS5003;41524;35.624;139.698;2024-01-07T08:45:10;11.00;7.00;
53658;PMS5003;41524;35.624;139.698;2024-01-07T08:50:09;9.00;7.00;
53658;PMS5003;41524;35.624;139.698;2024-01-07T08:55:14;7.00;7.00;
53658;PMS5003;41524;35.624;139.698;2024-01-07T09:00:09;8.00;4.00;
53658;PMS5003;41524;35.624;139.698;2024-01-07T09:05:09;7.00;7.00;
53658;PMS5003;41524;35.624;139.698;2024-01-07T09:10:14;26.00;25.00;
53658;PMS5003;41524;35.624;139.698;2024-01-07T09:15:09;35.00;31.00;
53658;PMS5003;41524;35.624;139.698;2024-01-07T09:20:09;9.00;9.00;
53658;PMS5003;41524;35.624;139.698;2024-01-07T09:25:10;11.00;9.00;
53658;PMS5003;41524;35.624;139.698;2024-01-07T09:30:09;11.00;11.00;
53658;PMS5003;41524;35.624;139.698;2024-01-07T09:35:09;11.00;11.00;
53658;PMS5003;41524;35.624;139.698;2024-01-07T09:40:10;9.00;8.00;
53658;PMS5003;41524;35.624;139.698;2024-01-07T09:45:08;13.00;13.00;
53658;PMS5003;41524;35.624;139.698;2024-01-07T09:50:09;9.00;9.00;
53658;PMS5003;41524;35.624;139.698;2024-01-07T09:55:18;11.00;11.00;
53658;PMS5003;41524;35.624;139.698;2024-01-07T10:00:14;10.00;9.00;
53658;PMS5003;41524;35.624;139.698;2024-01-07T10:05:09;9.00;8.00;
53658;PMS5003;41524;35.624;139.698;2024-01-07T10:10:12;9.00;9.00;
53658;PMS5003;41524;35.624;139.698;2024-01-07T10:15:09;10.00;8.00;
53658;PMS5003;41524;35.624;139.698;2024-01-07T10:20:09;9.00;8.00;
53658;PMS5003;41524;35.624;139.698;2024-01-07T10:25:11;7.00;6.00;
53658;PMS5003;41524;35.624;139.698;2024-01-07T10:30:10;11.00;10.00;
53658;PMS5003;41524;35.624;139.698;2024-01-07T10:35:13;15.00;13.00;
53658;PMS5003;41524;35.624;139.698;2024-01-07T10:40:09;9.00;9.00;
53658;PMS5003;41524;35.624;139.698;2024-01-07T10:45:09;9.00;9.00;
53658;PMS5003;41524;35.624;139.698;2024-01-07T10:50:10;10.00;8.00;
53658;PMS5003;41524;35.624;139.698;2024-01-07T10:55:18;10.00;9.00;
53658;PMS5003;41524;35.624;139.698;2024-01-07T11:00:18;8.00;8.00;
53658;PMS5003;41524;35.624;139.698;2024-01-07T11:05:12;8.00;8.00;
53658;PMS5003;41524;35.624;139.698;2024-01-07T11:10:11;13.00;10.00;
53658;PMS5003;41524;35.624;139.698;2024-01-07T11:15:09;10.00;10.00;
53658;PMS5003;41524;35.624;139.698;2024-01-07T11:20:12;9.00;9.00;
53658;PMS5003;41524;35.624;139.698;2024-01-07T11:25:28;10.00;8.00;
53658;PMS5003;41524;35.624;139.698;2024-01-07T11:30:18;8.00;7.00;
53658;PMS5003;41524;35.624;139.698;2024-01-07T11:35:08;12.00;9.00;
53658;PMS5003;41524;35.624;139.698;2024-01-07T11:40:08;12.00;11.00;
53658;PMS5003;41524;35.624;139.698;2024-01-07T11:45:09;9.00;9.00;
53658;PMS5003;41524;35.624;139.698;2024-01-07T11:50:09;11.00;10.00;
53658;PMS5003;41524;35.624;139.698;2024-01-07T11:55:09;8.00;8.00;
53658;PMS5003;41524;35.624;139.698;2024-01-07T12:00:10;10.00;10.00;
53658;PMS5003;41524;35.624;139.698;2024-01-07T12:05:08;11.00;10.00;
53658;PMS5003;41524;35.624;139.698;2024-01-07T12:10:08;9.00;8.00;
53658;PMS5003;41524;35.624;139.698;2024-01-07T12:15:09;14.00;14.00;
53658;PMS5003;41524;35.624;139.698;2024-01-07T12:20:09;12.00;11.00;
53658;PMS5003;41524;35.624;139.698;2024-01-07T12:25:08;14.00;12.00;
53658;PMS5003;41524;35.624;139.698;2024-01-07T12:30:09;15.00;15.00;
53658;PMS5003;41524;35.624;139.698;2024-01-07T12:35:09;17.00;16.00;
53658;PMS5003;41524;35.624;139.698;2024-01-07T12:40:10;20.00;18.00;
53658;PMS5003;41524;35.624;139.698;2024-01-07T12:45:10;20.00;17.00;
53658;PMS5003;41524;35.624;139.698;2024-01-07T12:50:09;21.00;18.00;
53658;PMS5003;41524;35.624;139.698;2024-01-07T12:55:09;16.00;16.00;
53658;PMS5003;41524;35.624;139.698;2024-01-07T13:00:10;19.00;16.00;
53658;PMS5003;41524;35.624;139.698;2024-01-07T13:05:14;16.00;15.00;
53658;PMS5003;41524;35.624;139.698;2024-01-07T13:10:09;19.00;18.00;
53658;PMS5003;41524;35.624;139.698;2024-01-07T13:15:19;19.00;18.00;
53658;PMS5003;41524;35.624;139.698;2024-01-07T13:20:13;14.00;14.00;
53658;PMS5003;41524;35.624;139.698;2024-01-07T13:25:09;11.00;11.00;
53658;PMS5003;41524;35.624;139.698;2024-01-07T13:30:09;8.00;7.00;
53658;PMS5003;41524;35.624;139.698;2024-01-07T13:35:08;4.00;4.00;
53658;PMS5003;41524;35.624;139.698;2024-01-07T13:40:10;5.00;4.00;
53658;PMS5003;41524;35.624;139.698;2024-01-07T13:45:09;4.00;4.00;
53658;PMS5003;41524;35.624;139.698;2024-01-07T13:50:09;3.00;3.00;
53658;PMS5003;41524;35.624;139.698;2024-01-07T13:55:10;1.00;1.00;
53658;PMS5003;41524;35.624;139.698;2024-01-07T14:00:09;2.00;2.00;
53658;PMS5003;41524;35.624;139.698;2024-01-07T14:05:09;1.00;1.00;
53658;PMS5003;41524;35.624;139.698;2024-01-07T14:10:09;1.00;0.00;
53658;PMS5003;41524;35.624;139.698;2024-01-07T14:15:09;1.00;1.00;
53658;PMS5003;41524;35.624;139.698;2024-01-07T14:20:09;0.00;0.00;
53658;PMS5003;41524;35.624;139.698;2024-01-07T14:25:09;1.00;1.00;
53658;PMS5003;41524;35.624;139.698;2024-01-07T14:30:09;0.00;0.00;
53658;PMS5003;41524;35.624;139.698;2024-01-07T14:35:09;0.00;0.00;
53658;PMS5003;41524;35.624;139.698;2024-01-07T14:40:09;1.00;1.00;
53658;PMS5003;41524;35.624;139.698;2024-01-07T14:45:09;0.00;0.00;
53658;PMS5003;41524;35.624;139.698;2024-01-07T14:50:10;0.00;0.00;
53658;PMS5003;41524;35.624;139.698;2024-01-07T14:55:09;0.00;0.00;
53658;PMS5003;41524;35.624;139.698;2024-01-07T15:00:10;0.00;0.00;
53658;PMS5003;41524;35.624;139.698;2024-01-07T15:05:09;0.00;0.00;
53658;PMS5003;41524;35.624;139.698;2024-01-07T15:10:09;0.00;0.00;
53658;PMS5003;41524;35.624;139.698;2024-01-07T15:15:13;0.00;0.00;
53658;PMS5003;41524;35.624;139.698;2024-01-07T15:20:09;0.00;0.00;
53658;PMS5003;41524;35.624;139.698;2024-01-07T15:25:12;0.00;0.00;
53658;PMS5003;41524;35.624;139.698;2024-01-07T15:30:09;1.00;1.00;
53658;PMS5003;41524;35.624;139.698;2024-01-07T15:35:09;0.00;0.00;
53658;PMS5003;41524;35.624;139.698;2024-01-07T15:40:09;0.00;0.00;
53658;PMS5003;41524;35.624;139.698;2024-01-07T15:45:09;1.00;0.00;
53658;PMS5003;41524;35.624;139.698;2024-01-07T15:50:12;1.00;1.00;
53658;PMS5003;41524;35.624;139.698;2024-01-07T15:55:09;0.00;0.00;
53658;PMS5003;41524;35.624;139.698;2024-01-07T16:00:10;0.00;0.00;
53658;PMS5003;41524;35.624;139.698;2024-01-07T16:05:09;0.00;0.00;
53658;PMS5003;41524;35.624;139.698;2024-01-07T16:10:08;0.00;0.00;
53658;PMS5003;41524;35.624;139.698;2024-01-07T16:15:09;2.00;0.00;
53658;PMS5003;41524;35.624;139.698;2024-01-07T16:20:09;0.00;0.00;
53658;PMS5003;41524;35.624;139.698;2024-01-07T16:25:09;1.00;1.00;
53658;PMS5003;41524;35.624;139.698;2024-01-07T16:30:10;0.00;0.00;
53658;PMS5003;41524;35.624;139.698;2024-01-07T16:35:08;1.00;0.00;
53658;PMS5003;41524;35.624;139.698;2024-01-07T16:40:09;1.00;0.00;
53658;PMS5003;41524;35.624;139.698;2024-01-07T16:45:09;0.00;0.00;
53658;PMS5003;41524;35.624;139.698;2024-01-07T16:50:09;0.00;0.00;
53658;PMS5003;41524;35.624;139.698;2024-01-07T16:55:09;0.00;0.00;
53658;PMS5003;41524;35.624;139.698;2024-01-07T17:00:25;0.00;0.00;
53658;PMS5003;41524;35.624;139.698;2024-01-07T17:05:09;1.00;1.00;
53658;PMS5003;41524;35.624;139.698;2024-01-07T17:10:13;1.00;1.00;
53658;PMS5003;41524;35.624;139.698;2024-01-07T17:15:09;1.00;1.00;
53658;PMS5003;41524;35.624;139.698;2024-01-07T17:20:09;1.00;1.00;
53658;PMS5003;41524;35.624;139.698;2024-01-07T17:25:09;1.00;1.00;
53658;PMS5003;41524;35.624;139.698;2024-01-07T17:30:09;0.00;0.00;
53658;PMS5003;41524;35.624;139.698;2024-01-07T17:35:09;1.00;1.00;
53658;PMS5003;41524;35.624;139.698;2024-01-07T17:40:09;0.00;0.00;
53658;PMS5003;41524;35.624;139.698;2024-01-07T17:45:09;2.00;0.00;
53658;PMS5003;41524;35.624;139.698;2024-01-07T17:50:08;1.00;1.00;
53658;PMS5003;41524;35.624;139.698;2024-01-07T17:55:10;1.00;1.00;
53658;PMS5003;41524;35.624;139.698;2024-01-07T18:00:09;0.00;0.00;
53658;PMS5003;41524;35.624;139.698;2024-01-07T18:05:09;1.00;0.00;
53658;PMS5003;41524;35.624;139.698;2024-01-07T18:10:10;0.00;0.00;
53658;PMS5003;41524;35.624;139.698;2024-01-07T18:15:09;0.00;0.00;
53658;PMS5003;41524;35.624;139.698;2024-01-07T18:20:08;0.00;0.00;
53658;PMS5003;41524;35.624;139.698;2024-01-07T18:25:12;0.00;0.00;
53658;PMS5003;41524;35.624;139.698;2024-01-07T18:30:09;0.00;0.00;
53658;PMS5003;41524;35.624;139.698;2024-01-07T18:35:09;0.00;0.00;
53658;PMS5003;41524;35.624;139.698;2024-01-07T18:40:09;0.00;0.00;
53658;PMS5003;41524;35.624;139.698;2024-01-07T18:45:09;0.00;0.00;
53658;PMS5003;41524;35.624;139.698;2024-01-07T18:50:09;0.00;0.00;
53658;PMS5003;41524;35.624;139.698;2024-01-07T18:55:09;0.00;0.00;
53658;PMS5003;41524;35.624;139.698;2024-01-07T19:00:09;1.00;0.00;
53658;PMS5003;41524;35.624;139.698;2024-01-07T19:05:09;0.00;0.00;
53658;PMS5003;41524;35.624;139.698;2024-01-07T19:10:10;0.00;0.00;
53658;PMS5003;41524;35.624;139.698;2024-01-07T19:15:09;1.00;1.00;
53658;PMS5003;41524;35.624;139.698;2024-01-07T19:20:19;0.00;0.00;
53658;PMS5003;41524;35.624;139.698;2024-01-07T19:25:11;0.00;0.00;
53658;PMS5003;41524;35.624;139.698;2024-01-07T19:30:09;0.00;0.00;
53658;PMS5003;41524;35.624;139.698;2024-01-07T19:35:08;0.00;0.00;
53658;PMS5003;41524;35.624;139.698;2024-01-07T19:40:08;0.00;0.00;
53658;PMS5003;41524;35.624;139.698;2024-01-07T19:45:25;0.00;0.00;
53658;PMS5003;41524;35.624;139.698;2024-01-07T19:50:09;0.00;0.00;
53658;PMS5003;41524;35.624;139.698;2024-01-07T19:55:09;0.00;0.00;
53658;PMS5003;41524;35.624;139.698;2024-01-07T20:00:09;0.00;0.00;
53658;PMS5003;41524;35.624;139.698;2024-01-07T20:05:10;0.00;0.00;
53658;PMS5003;41524;35.624;139.698;2024-01-07T20:10:09;0.00;0.00;
53658;PMS5003;41524;35.624;139.698;2024-01-07T20:15:09;0.00;0.00;
53658;PMS5003;41524;35.624;139.698;2024-01-07T20:20:09;0.00;0.00;
53658;PMS5003;41524;35.624;139.698;2024-01-07T20:25:09;0.00;0.00;
53658;PMS5003;41524;35.624;139.698;2024-01-07T20:30:09;0.00;0.00;
53658;PMS5003;41524;35.624;139.698;2024-01-07T20:35:09;0.00;0.00;
53658;PMS5003;41524;35.624;139.698;2024-01-07T20:40:09;0.00;0.00;
53658;PMS5003;41524;35.624;139.698;2024-01-07T20:45:10;0.00;0.00;
53658;PMS5003;41524;35.624;139.698;2024-01-07T20:50:09;0.00;0.00;
53658;PMS5003;41524;35.624;139.698;2024-01-07T20:55:09;0.00;0.00;
53658;PMS5003;41524;35.624;139.698;2024-01-07T21:00:09;2.00;0.00;
53658;PMS5003;41524;35.624;139.698;2024-01-07T21:05:10;0.00;0.00;
53658;PMS5003;41524;35.624;139.698;2024-01-07T21:10:09;0.00;0.00;
53658;PMS5003;41524;35.624;139.698;2024-01-07T21:15:10;0.00;0.00;
53658;PMS5003;41524;35.624;139.698;2024-01-07T21:20:34;2.00;0.00;
53658;PMS5003;41524;35.624;139.698;2024-01-07T21:25:09;0.00;0.00;
53658;PMS5003;41524;35.624;139.698;2024-01-07T21:30:08;0.00;0.00;
53658;PMS5003;41524;35.624;139.698;2024-01-07T21:35:10;0.00;0.00;
53658;PMS5003;41524;35.624;139.698;2024-01-07T21:40:09;0.00;0.00;
53658;PMS5003;41524;35.624;139.698;2024-01-07T21:45:09;0.00;0.00;
53658;PMS5003;41524;35.624;139.698;2024-01-07T21:50:10;0.00;0.00;
53658;PMS5003;41524;35.624;139.698;2024-01-07T21:55:09;1.00;1.00;
53658;PMS5003;41524;35.624;139.698;2024-01-07T22:00:09;0.00;0.00;
53658;PMS5003;41524;35.624;139.698;2024-01-07T22:05:08;0.00;0.00;
53658;PMS5003;41524;35.624;139.698;2024-01-07T22:10:09;0.00;0.00;
53658;PMS5003;41524;35.624;139.698;2024-01-07T22:15:09;0.00;0.00;
53658;PMS5003;41524;35.624;139.698;2024-01-07T22:20:09;0.00;0.00;
53658;PMS5003;41524;35.624;139.698;2024-01-07T22:25:09;0.00;0.00;
53658;PMS5003;41524;35.624;139.698;2024-01-07T22:30:09;2.00;1.00;
53658;PMS5003;41524;35.624;139.698;2024-01-07T22:35:09;1.00;1.00;
53658;PMS5003;41524;35.624;139.698;2024-01-07T22:40:09;0.00;0.00;
53658;PMS5003;41524;35.624;139.698;2024-01-07T22:45:09;1.00;0.00;
53658;PMS5003;41524;35.624;139.698;2024-01-07T22:50:10;0.00;0.00;
53658;PMS5003;41524;35.624;139.698;2024-01-07T22:55:09;0.00;0.00;
53658;PMS5003;41524;35.624;139.698;2024-01-07T23:00:09;1.00;1.00;
53658;PMS5003;41524;35.624;139.698;2024-01-07T23:05:09;0.00;0.00;
53658;PMS5003;41524;35.624;139.698;2024-01-07T23:10:09;0.00;0.00;
53658;PMS5003;41524;35.624;139.698;2024-01-07T23:15:08;0.00;0.00;
53658;PMS5003;41524;35.624;139.698;2024-01-07T23:20:09;0.00;0.00;
53658;PMS5003;41524;35.624;139.698;2024-01-07T23:25:08;0.00;0.00;
53658;PMS5003;41524;35.624;139.698;2024-01-07T23:30:09;0.00;0.00;
53658;PMS5003;41524;35.624;139.698;2024-01-07T23:35:09;0.00;0.00;
53658;PMS5003;41524;35.624;139.698;2024-01-07T23:40:09;0.00;0.00;
53658;PMS5003;41524;35.624;139.698;2024-01-07T23:45:09;0.00;0.00;
53658;PMS5003;41524;35.624;139.698;2024-01-07T23:50:09;2.00;1.00;
53658;PMS5003;41524;35.624;139.698;2024-01-07T23:55:09;0.00;0.00;
